sensor_id;sensor_type;location;lat;lon;timestamp;pressure;altitude;pressure_sealevel;temperature;humidity
71791;BME280;59638;52.126;5.434;2023-04-03T00:00:32;103247.84;;;2.57;88.61
71791;BME280;59638;52.126;5.434;2023-04-03T00:02:59;103245.28;;;2.55;87.29
71791;BME280;59638;52.126;5.434;2023-04-03T00:05:25;103248.78;;;2.54;87.87
71791;BME280;59638;52.126;5.434;2023-04-03T00:07:52;103252.25;;;2.55;87.56
71791;BME280;59638;52.126;5.434;2023-04-03T00:10:19;103253.19;;;2.51;88.44
71791;BME280;59638;52.126;5.434;2023-04-03T00:12:45;103250.63;;;2.48;87.98
71791;BME280;59638;52.126;5.434;2023-04-03T00:15:12;103251.53;;;2.47;87.85
71791;BME280;59638;52.126;5.434;2023-04-03T00:17:38;103257.59;;;2.47;87.37
71791;BME280;59638;52.126;5.434;2023-04-03T00:20:06;103251.56;;;2.43;87.83
71791;BME280;59638;52.126;5.434;2023-04-03T00:22:32;103255.16;;;2.38;88.53
71791;BME280;59638;52.126;5.434;2023-04-03T00:24:59;103251.69;;;2.36;88.75
71791;BME280;59638;52.126;5.434;2023-04-03T00:27:25;103249.91;;;2.39;87.31
71791;BME280;59638;52.126;5.434;2023-04-03T00:29:51;103256.06;;;2.35;89.00
71791;BME280;59638;52.126;5.434;2023-04-03T00:32:18;103251.75;;;2.33;89.16
71791;BME280;59638;52.126;5.434;2023-04-03T00:34:45;103255.25;;;2.30;88.89
71791;BME280;59638;52.126;5.434;2023-04-03T00:37:11;103253.56;;;2.28;89.93
71791;BME280;59638;52.126;5.434;2023-04-03T00:39:38;103256.19;;;2.28;89.64
71791;BME280;59638;52.126;5.434;2023-04-03T00:42:04;103259.75;;;2.22;90.14
71791;BME280;59638;52.126;5.434;2023-04-03T00:46:57;103269.34;;;2.20;90.13
71791;BME280;59638;52.126;5.434;2023-04-03T00:49:24;103270.22;;;2.19;89.79
71791;BME280;59638;52.126;5.434;2023-04-03T00:51:50;103270.22;;;2.19;89.80
71791;BME280;59638;52.126;5.434;2023-04-03T00:54:18;103269.38;;;2.17;89.99
71791;BME280;59638;52.126;5.434;2023-04-03T00:56:44;103272.94;;;2.13;90.34
71791;BME280;59638;52.126;5.434;2023-04-03T00:59:15;103275.53;;;2.13;90.22
71791;BME280;59638;52.126;5.434;2023-04-03T01:01:42;103273.81;;;2.10;90.66
71791;BME280;59638;52.126;5.434;2023-04-03T01:04:37;103275.66;;;2.04;91.09
71791;BME280;59638;52.126;5.434;2023-04-03T01:07:10;103277.47;;;2.00;91.59
71791;BME280;59638;52.126;5.434;2023-04-03T01:09:37;103274.88;;;1.99;91.26
71791;BME280;59638;52.126;5.434;2023-04-03T01:12:22;103278.31;;;2.01;91.22
71791;BME280;59638;52.126;5.434;2023-04-03T01:14:51;103278.41;;;1.95;91.58
71791;BME280;59638;52.126;5.434;2023-04-03T01:25:57;103284.59;;;1.87;92.71
71791;BME280;59638;52.126;5.434;2023-04-03T01:28:30;103277.59;;;1.89;92.77
71791;BME280;59638;52.126;5.434;2023-04-03T01:33:46;103282.00;;;1.84;92.20
71791;BME280;59638;52.126;5.434;2023-04-03T01:36:16;103274.25;;;1.81;92.76
71791;BME280;59638;52.126;5.434;2023-04-03T01:38:43;103276.03;;;1.78;92.85
71791;BME280;59638;52.126;5.434;2023-04-03T01:41:09;103275.19;;;1.77;92.81
71791;BME280;59638;52.126;5.434;2023-04-03T01:43:36;103278.63;;;1.79;92.93
71791;BME280;59638;52.126;5.434;2023-04-03T01:46:02;103277.78;;;1.77;92.90
71791;BME280;59638;52.126;5.434;2023-04-03T01:48:29;103272.59;;;1.76;92.74
71791;BME280;59638;52.126;5.434;2023-04-03T01:50:55;103279.56;;;1.75;93.19
71791;BME280;59638;52.126;5.434;2023-04-03T01:53:22;103282.16;;;1.75;92.39
71791;BME280;59638;52.126;5.434;2023-04-03T01:55:48;103272.66;;;1.73;93.38
71791;BME280;59638;52.126;5.434;2023-04-03T01:58:15;103278.75;;;1.70;92.50
71791;BME280;59638;52.126;5.434;2023-04-03T02:00:41;103279.66;;;1.68;93.40
71791;BME280;59638;52.126;5.434;2023-04-03T02:03:07;103281.41;;;1.67;93.84
71791;BME280;59638;52.126;5.434;2023-04-03T02:05:34;103290.97;;;1.65;93.78
71791;BME280;59638;52.126;5.434;2023-04-03T02:08:01;103281.44;;;1.64;93.67
71791;BME280;59638;52.126;5.434;2023-04-03T02:10:27;103289.28;;;1.61;94.20
71791;BME280;59638;52.126;5.434;2023-04-03T02:12:53;103287.59;;;1.57;94.39
71791;BME280;59638;52.126;5.434;2023-04-03T02:15:20;103296.34;;;1.53;94.92
71791;BME280;59638;52.126;5.434;2023-04-03T02:17:46;103297.22;;;1.53;95.06
71791;BME280;59638;52.126;5.434;2023-04-03T02:20:13;103302.44;;;1.50;95.06
71791;BME280;59638;52.126;5.434;2023-04-03T02:22:39;103308.56;;;1.48;95.29
71791;BME280;59638;52.126;5.434;2023-04-03T02:25:06;103306.84;;;1.47;95.50
71791;BME280;59638;52.126;5.434;2023-04-03T02:27:33;103302.59;;;1.40;96.19
71791;BME280;59638;52.126;5.434;2023-04-03T02:29:59;103308.75;;;1.32;96.91
71791;BME280;59638;52.126;5.434;2023-04-03T02:32:25;103300.97;;;1.28;97.71
71791;BME280;59638;52.126;5.434;2023-04-03T02:34:52;103300.06;;;1.30;97.28
71791;BME280;59638;52.126;5.434;2023-04-03T02:37:19;103296.59;;;1.31;97.24
71791;BME280;59638;52.126;5.434;2023-04-03T02:39:45;103303.56;;;1.29;97.45
71791;BME280;59638;52.126;5.434;2023-04-03T02:42:12;103301.00;;;1.25;97.89
71791;BME280;59638;52.126;5.434;2023-04-03T02:44:38;103303.69;;;1.20;98.52
71791;BME280;59638;52.126;5.434;2023-04-03T02:47:05;103296.69;;;1.22;98.01
71791;BME280;59638;52.126;5.434;2023-04-03T02:49:31;103308.00;;;1.21;98.69
71791;BME280;59638;52.126;5.434;2023-04-03T02:51:58;103310.59;;;1.18;99.28
71791;BME280;59638;52.126;5.434;2023-04-03T02:54:24;103314.09;;;1.17;99.11
71791;BME280;59638;52.126;5.434;2023-04-03T02:56:54;103324.50;;;1.17;99.02
71791;BME280;59638;52.126;5.434;2023-04-03T02:59:20;103320.22;;;1.12;99.69
71791;BME280;59638;52.126;5.434;2023-04-03T03:01:47;103326.38;;;1.06;100.00
71791;BME280;59638;52.126;5.434;2023-04-03T03:04:13;103321.25;;;0.97;100.00
71791;BME280;59638;52.126;5.434;2023-04-03T03:06:39;103326.56;;;0.85;100.00
71791;BME280;59638;52.126;5.434;2023-04-03T03:09:08;103330.09;;;0.80;100.00
71791;BME280;59638;52.126;5.434;2023-04-03T03:11:35;103335.31;;;0.76;100.00
71791;BME280;59638;52.126;5.434;2023-04-03T03:14:01;103331.91;;;0.69;100.00
71791;BME280;59638;52.126;5.434;2023-04-03T03:16:28;103337.94;;;0.71;100.00
71791;BME280;59638;52.126;5.434;2023-04-03T03:18:54;103341.44;;;0.66;100.00
71791;BME280;59638;52.126;5.434;2023-04-03T03:21:23;103344.06;;;0.64;100.00
71791;BME280;59638;52.126;5.434;2023-04-03T03:23:49;103343.22;;;0.64;100.00
71791;BME280;59638;52.126;5.434;2023-04-03T03:26:15;103331.94;;;0.68;100.00
71791;BME280;59638;52.126;5.434;2023-04-03T03:28:42;103335.38;;;0.68;100.00
71791;BME280;59638;52.126;5.434;2023-04-03T03:31:10;103339.78;;;0.60;100.00
71791;BME280;59638;52.126;5.434;2023-04-03T03:33:37;103344.13;;;0.58;100.00
71791;BME280;59638;52.126;5.434;2023-04-03T03:36:03;103351.06;;;0.58;100.00
71791;BME280;59638;52.126;5.434;2023-04-03T03:38:30;103348.50;;;0.51;100.00
71791;BME280;59638;52.126;5.434;2023-04-03T03:40:56;103339.00;;;0.49;100.00
71791;BME280;59638;52.126;5.434;2023-04-03T03:43:23;103340.75;;;0.47;100.00
71791;BME280;59638;52.126;5.434;2023-04-03T03:45:51;103347.75;;;0.40;100.00
71791;BME280;59638;52.126;5.434;2023-04-03T03:48:19;103349.47;;;0.40;100.00
71791;BME280;59638;52.126;5.434;2023-04-03T03:50:47;103350.34;;;0.36;100.00
71791;BME280;59638;52.126;5.434;2023-04-03T03:53:13;103350.31;;;0.39;100.00
71791;BME280;59638;52.126;5.434;2023-04-03T03:55:41;103346.00;;;0.38;100.00
71791;BME280;59638;52.126;5.434;2023-04-03T03:58:07;103349.47;;;0.37;100.00
71791;BME280;59638;52.126;5.434;2023-04-03T04:00:34;103349.47;;;0.38;100.00
71791;BME280;59638;52.126;5.434;2023-04-03T04:03:00;103346.00;;;0.41;100.00
71791;BME280;59638;52.126;5.434;2023-04-03T04:05:27;103352.06;;;0.40;100.00
71791;BME280;59638;52.126;5.434;2023-04-03T04:07:54;103351.19;;;0.38;100.00
71791;BME280;59638;52.126;5.434;2023-04-03T04:10:20;103357.31;;;0.31;100.00
71791;BME280;59638;52.126;5.434;2023-04-03T04:12:47;103351.28;;;0.27;100.00
71791;BME280;59638;52.126;5.434;2023-04-03T04:15:15;103359.09;;;0.27;100.00
71791;BME280;59638;52.126;5.434;2023-04-03T04:17:41;103358.19;;;0.30;100.00
71791;BME280;59638;52.126;5.434;2023-04-03T04:20:08;103363.34;;;0.40;100.00
71791;BME280;59638;52.126;5.434;2023-04-03T04:22:35;103365.06;;;0.37;100.00
71791;BME280;59638;52.126;5.434;2023-04-03T04:25:01;103372.06;;;0.25;100.00
71791;BME280;59638;52.126;5.434;2023-04-03T04:27:28;103368.63;;;0.22;100.00
71791;BME280;59638;52.126;5.434;2023-04-03T04:29:54;103372.94;;;0.24;100.00
71791;BME280;59638;52.126;5.434;2023-04-03T04:32:24;103368.63;;;0.23;100.00
71791;BME280;59638;52.126;5.434;2023-04-03T04:34:50;103372.09;;;0.22;100.00
71791;BME280;59638;52.126;5.434;2023-04-03T04:37:16;103377.25;;;0.25;100.00
71791;BME280;59638;52.126;5.434;2023-04-03T04:39:43;103371.19;;;0.25;100.00
71791;BME280;59638;52.126;5.434;2023-04-03T04:42:09;103372.97;;;0.23;100.00
71791;BME280;59638;52.126;5.434;2023-04-03T04:44:42;103380.75;;;0.21;100.00
71791;BME280;59638;52.126;5.434;2023-04-03T04:47:08;103375.53;;;0.24;100.00
71791;BME280;59638;52.126;5.434;2023-04-03T04:49:34;103387.69;;;0.22;100.00
71791;BME280;59638;52.126;5.434;2023-04-03T04:52:01;103387.69;;;0.18;100.00
71791;BME280;59638;52.126;5.434;2023-04-03T04:54:28;103384.22;;;0.19;100.00
71791;BME280;59638;52.126;5.434;2023-04-03T04:56:54;103375.63;;;0.11;100.00
71791;BME280;59638;52.126;5.434;2023-04-03T04:59:21;103383.44;;;0.05;100.00
71791;BME280;59638;52.126;5.434;2023-04-03T05:01:47;103375.63;;;0.06;100.00
71791;BME280;59638;52.126;5.434;2023-04-03T05:04:14;103379.09;;;0.05;100.00
71791;BME280;59638;52.126;5.434;2023-04-03T05:06:41;103392.94;;;0.10;100.00
71791;BME280;59638;52.126;5.434;2023-04-03T05:09:07;103381.66;;;0.16;100.00
71791;BME280;59638;52.126;5.434;2023-04-03T05:11:35;103385.94;;;0.24;100.00
71791;BME280;59638;52.126;5.434;2023-04-03T05:14:02;103394.56;;;0.30;100.00
71791;BME280;59638;52.126;5.434;2023-04-03T05:16:32;103385.03;;;0.33;100.00
71791;BME280;59638;52.126;5.434;2023-04-03T05:18:58;103388.50;;;0.34;100.00
71791;BME280;59638;52.126;5.434;2023-04-03T05:21:25;103393.69;;;0.34;100.00
71791;BME280;59638;52.126;5.434;2023-04-03T05:23:52;103392.81;;;0.35;100.00
71791;BME280;59638;52.126;5.434;2023-04-03T05:26:18;103399.69;;;0.39;100.00
71791;BME280;59638;52.126;5.434;2023-04-03T05:28:45;103395.34;;;0.39;100.00
71791;BME280;59638;52.126;5.434;2023-04-03T05:31:12;103404.84;;;0.45;100.00
71791;BME280;59638;52.126;5.434;2023-04-03T05:33:39;103407.47;;;0.43;100.00
71791;BME280;59638;52.126;5.434;2023-04-03T05:36:06;103404.88;;;0.42;100.00
71791;BME280;59638;52.126;5.434;2023-04-03T05:38:33;103416.97;;;0.46;100.00
71791;BME280;59638;52.126;5.434;2023-04-03T05:40:59;103397.94;;;0.44;100.00
71791;BME280;59638;52.126;5.434;2023-04-03T05:43:26;103408.31;;;0.48;100.00
71791;BME280;59638;52.126;5.434;2023-04-03T05:45:52;103419.53;;;0.53;100.00
71791;BME280;59638;52.126;5.434;2023-04-03T05:48:19;103406.50;;;0.57;100.00
71791;BME280;59638;52.126;5.434;2023-04-03T05:50:46;103421.22;;;0.59;100.00
71791;BME280;59638;52.126;5.434;2023-04-03T05:53:18;103415.13;;;0.66;100.00
71791;BME280;59638;52.126;5.434;2023-04-03T05:55:47;103422.84;;;0.72;100.00
71791;BME280;59638;52.126;5.434;2023-04-03T05:58:14;103422.00;;;0.73;100.00
71791;BME280;59638;52.126;5.434;2023-04-03T06:00:40;103421.09;;;0.80;100.00
71791;BME280;59638;52.126;5.434;2023-04-03T06:03:07;103424.47;;;0.89;100.00
71791;BME280;59638;52.126;5.434;2023-04-03T06:05:33;103429.59;;;0.96;100.00
71791;BME280;59638;52.126;5.434;2023-04-03T06:08:01;103426.97;;;1.01;100.00
71791;BME280;59638;52.126;5.434;2023-04-03T06:10:29;103433.00;;;1.07;100.00
71791;BME280;59638;52.126;5.434;2023-04-03T06:12:55;103432.88;;;1.18;100.00
71791;BME280;59638;52.126;5.434;2023-04-03T06:15:22;103436.19;;;1.37;100.00
71791;BME280;59638;52.126;5.434;2023-04-03T06:17:49;103428.16;;;1.57;100.00
71791;BME280;59638;52.126;5.434;2023-04-03T06:20:15;103436.63;;;1.77;100.00
71791;BME280;59638;52.126;5.434;2023-04-03T06:22:42;103428.41;;;2.11;99.98
71791;BME280;59638;52.126;5.434;2023-04-03T06:25:09;103428.81;;;2.43;100.00
71791;BME280;59638;52.126;5.434;2023-04-03T06:27:36;103428.66;;;3.11;98.84
71791;BME280;59638;52.126;5.434;2023-04-03T06:30:03;103431.69;;;3.81;95.72
71791;BME280;59638;52.126;5.434;2023-04-03T06:32:29;103430.19;;;4.13;94.42
71791;BME280;59638;52.126;5.434;2023-04-03T06:34:56;103425.25;;;4.39;93.07
71791;BME280;59638;52.126;5.434;2023-04-03T06:37:23;103433.81;;;4.83;93.66
71791;BME280;59638;52.126;5.434;2023-04-03T06:39:52;103434.34;;;4.97;91.27
71791;BME280;59638;52.126;5.434;2023-04-03T06:42:18;103434.88;;;5.44;90.50
71791;BME280;59638;52.126;5.434;2023-04-03T06:44:45;103442.47;;;5.53;90.55
71791;BME280;59638;52.126;5.434;2023-04-03T06:47:13;103445.94;;;5.21;90.00
71791;BME280;59638;52.126;5.434;2023-04-03T06:49:40;103439.06;;;5.51;90.91
71791;BME280;59638;52.126;5.434;2023-04-03T06:52:06;103444.34;;;5.81;89.65
71791;BME280;59638;52.126;5.434;2023-04-03T06:54:33;103450.91;;;5.97;87.76
71791;BME280;59638;52.126;5.434;2023-04-03T06:57:00;103445.25;;;6.40;86.24
71791;BME280;59638;52.126;5.434;2023-04-03T06:59:26;103453.03;;;6.71;82.54
71791;BME280;59638;52.126;5.434;2023-04-03T07:01:53;103451.56;;;6.63;83.45
71791;BME280;59638;52.126;5.434;2023-04-03T07:04:19;103451.66;;;7.13;81.77
71791;BME280;59638;52.126;5.434;2023-04-03T07:06:47;103449.00;;;7.39;81.49
71791;BME280;59638;52.126;5.434;2023-04-03T07:09:14;103457.25;;;7.78;80.29
71791;BME280;59638;52.126;5.434;2023-04-03T07:11:41;103462.06;;;7.90;78.71
71791;BME280;59638;52.126;5.434;2023-04-03T07:14:07;103454.84;;;7.72;78.62
71791;BME280;59638;52.126;5.434;2023-04-03T07:16:35;103457.66;;;7.91;78.42
71791;BME280;59638;52.126;5.434;2023-04-03T07:19:02;103454.31;;;8.11;76.40
71791;BME280;59638;52.126;5.434;2023-04-03T07:21:29;103455.25;;;8.77;75.27
71791;BME280;59638;52.126;5.434;2023-04-03T07:23:55;103453.25;;;9.26;73.42
71791;BME280;59638;52.126;5.434;2023-04-03T07:26:22;103461.84;;;9.09;71.60
71791;BME280;59638;52.126;5.434;2023-04-03T07:28:49;103465.53;;;8.39;70.64
71791;BME280;59638;52.126;5.434;2023-04-03T07:31:16;103473.38;;;8.63;72.45
71791;BME280;59638;52.126;5.434;2023-04-03T07:33:45;103463.50;;;8.23;69.88
71791;BME280;59638;52.126;5.434;2023-04-03T07:36:17;103469.75;;;8.20;73.13
71791;BME280;59638;52.126;5.434;2023-04-03T07:38:44;103469.81;;;7.70;72.27
71791;BME280;59638;52.126;5.434;2023-04-03T07:41:14;103476.72;;;6.96;74.03
71791;BME280;59638;52.126;5.434;2023-04-03T07:43:41;103477.50;;;7.00;74.28
71791;BME280;59638;52.126;5.434;2023-04-03T07:46:08;103491.72;;;6.93;74.68
71791;BME280;59638;52.126;5.434;2023-04-03T07:48:35;103475.06;;;7.45;73.29
71791;BME280;59638;52.126;5.434;2023-04-03T07:51:03;103477.44;;;8.93;68.67
71791;BME280;59638;52.126;5.434;2023-04-03T07:53:30;103470.91;;;9.44;67.67
71791;BME280;59638;52.126;5.434;2023-04-03T07:55:58;103472.75;;;10.77;65.98
71791;BME280;59638;52.126;5.434;2023-04-03T07:58:25;103475.06;;;11.20;62.78
71791;BME280;59638;52.126;5.434;2023-04-03T08:00:52;103479.31;;;11.39;62.39
71791;BME280;59638;52.126;5.434;2023-04-03T08:03:18;103473.25;;;10.67;60.79
71791;BME280;59638;52.126;5.434;2023-04-03T08:05:47;103479.91;;;10.19;64.02
71791;BME280;59638;52.126;5.434;2023-04-03T08:08:17;103473.25;;;10.67;61.53
71791;BME280;59638;52.126;5.434;2023-04-03T08:10:53;103464.47;;;11.20;60.07
71791;BME280;59638;52.126;5.434;2023-04-03T08:13:21;103477.16;;;11.98;58.23
71791;BME280;59638;52.126;5.434;2023-04-03T08:15:47;103475.66;;;12.10;58.61
71791;BME280;59638;52.126;5.434;2023-04-03T08:18:15;103476.72;;;11.73;57.08
71791;BME280;59638;52.126;5.434;2023-04-03T08:20:42;103481.06;;;11.91;58.25
71791;BME280;59638;52.126;5.434;2023-04-03T08:23:09;103480.16;;;12.87;56.84
71791;BME280;59638;52.126;5.434;2023-04-03T08:25:40;103467.69;;;13.35;55.32
71791;BME280;59638;52.126;5.434;2023-04-03T08:28:08;103483.19;;;12.65;53.64
71791;BME280;59638;52.126;5.434;2023-04-03T08:30:34;103488.97;;;12.87;53.78
71791;BME280;59638;52.126;5.434;2023-04-03T08:33:02;103491.41;;;13.06;53.06
71791;BME280;59638;52.126;5.434;2023-04-03T08:35:29;103485.28;;;13.36;54.88
71791;BME280;59638;52.126;5.434;2023-04-03T08:37:55;103490.16;;;13.57;51.51
71791;BME280;59638;52.126;5.434;2023-04-03T08:40:22;103486.09;;;13.66;51.69
71791;BME280;59638;52.126;5.434;2023-04-03T08:45:50;103503.16;;;13.02;50.69
71791;BME280;59638;52.126;5.434;2023-04-03T08:48:27;103504.28;;;13.72;50.58
71791;BME280;59638;52.126;5.434;2023-04-03T08:51:00;103494.81;;;14.11;45.56
71791;BME280;59638;52.126;5.434;2023-04-03T08:53:32;103497.88;;;13.91;45.88
71791;BME280;59638;52.126;5.434;2023-04-03T08:56:05;103493.66;;;13.44;44.81
71791;BME280;59638;52.126;5.434;2023-04-03T08:59:01;103501.00;;;13.69;44.88
71791;BME280;59638;52.126;5.434;2023-04-03T09:01:37;103498.94;;;13.44;41.04
71791;BME280;59638;52.126;5.434;2023-04-03T09:04:13;103489.13;;;13.60;44.68
71791;BME280;59638;52.126;5.434;2023-04-03T09:06:43;103495.72;;;12.93;41.31
71791;BME280;59638;52.126;5.434;2023-04-03T09:12:00;103490.75;;;14.34;40.83
71791;BME280;59638;52.126;5.434;2023-04-03T09:17:42;103486.63;;;13.43;42.96
71791;BME280;59638;52.126;5.434;2023-04-03T09:22:46;103494.75;;;13.10;38.14
71791;BME280;59638;52.126;5.434;2023-04-03T09:25:28;103483.84;;;14.03;39.54
71791;BME280;59638;52.126;5.434;2023-04-03T09:28:03;103488.00;;;13.78;35.32
71791;BME280;59638;52.126;5.434;2023-04-03T09:30:30;103492.25;;;13.67;36.64
71791;BME280;59638;52.126;5.434;2023-04-03T09:32:56;103492.72;;;14.30;38.98
71791;BME280;59638;52.126;5.434;2023-04-03T09:35:28;103491.03;;;14.15;38.35
71791;BME280;59638;52.126;5.434;2023-04-03T09:40:44;103476.81;;;14.16;36.70
71791;BME280;59638;52.126;5.434;2023-04-03T09:43:28;103466.91;;;13.47;32.39
71791;BME280;59638;52.126;5.434;2023-04-03T09:45:56;103483.59;;;13.35;35.69
71791;BME280;59638;52.126;5.434;2023-04-03T09:48:57;103461.84;;;14.01;35.11
71791;BME280;59638;52.126;5.434;2023-04-03T09:51:34;103469.19;;;14.24;35.65
71791;BME280;59638;52.126;5.434;2023-04-03T09:54:26;103465.03;;;14.34;36.04
71791;BME280;59638;52.126;5.434;2023-04-03T09:56:58;103475.22;;;15.09;35.44
71791;BME280;59638;52.126;5.434;2023-04-03T09:59:27;103459.50;;;15.31;32.95
71791;BME280;59638;52.126;5.434;2023-04-03T10:02:18;103455.00;;;15.32;36.44
71791;BME280;59638;52.126;5.434;2023-04-03T10:04:47;103454.16;;;15.06;34.37
71791;BME280;59638;52.126;5.434;2023-04-03T10:07:33;103442.59;;;15.70;36.18
71791;BME280;59638;52.126;5.434;2023-04-03T10:10:16;103443.03;;;15.77;33.93
71791;BME280;59638;52.126;5.434;2023-04-03T10:12:44;103432.28;;;15.91;34.23
71791;BME280;59638;52.126;5.434;2023-04-03T10:15:13;103433.09;;;16.04;33.25
71791;BME280;59638;52.126;5.434;2023-04-03T10:20:17;103437.88;;;16.12;33.04
71791;BME280;59638;52.126;5.434;2023-04-03T10:26:16;103426.59;;;15.58;34.89
71791;BME280;59638;52.126;5.434;2023-04-03T10:29:15;103416.59;;;15.23;34.00
71791;BME280;59638;52.126;5.434;2023-04-03T10:31:54;103432.28;;;15.66;30.38
71791;BME280;59638;52.126;5.434;2023-04-03T10:34:35;103412.09;;;15.11;30.67
71791;BME280;59638;52.126;5.434;2023-04-03T10:39:57;103399.16;;;15.19;33.51
71791;BME280;59638;52.126;5.434;2023-04-03T10:42:35;103398.06;;;15.09;34.11
71791;BME280;59638;52.126;5.434;2023-04-03T10:45:19;103401.41;;;14.73;32.85
71791;BME280;59638;52.126;5.434;2023-04-03T10:51:00;103395.25;;;14.85;32.06
71791;BME280;59638;52.126;5.434;2023-04-03T10:53:41;103391.06;;;15.20;33.70
71791;BME280;59638;52.126;5.434;2023-04-03T10:59:28;103389.31;;;15.58;32.73
71791;BME280;59638;52.126;5.434;2023-04-03T11:02:00;103374.31;;;15.57;28.78
71791;BME280;59638;52.126;5.434;2023-04-03T11:04:31;103389.22;;;14.56;32.72
71791;BME280;59638;52.126;5.434;2023-04-03T11:09:44;103375.94;;;15.46;33.96
71791;BME280;59638;52.126;5.434;2023-04-03T11:12:17;103380.28;;;15.86;33.31
71791;BME280;59638;52.126;5.434;2023-04-03T11:14:46;103353.97;;;15.81;31.88
71791;BME280;59638;52.126;5.434;2023-04-03T11:22:41;103378.66;;;14.81;35.83
71791;BME280;59638;52.126;5.434;2023-04-03T11:28:01;103367.41;;;14.90;34.41
71791;BME280;59638;52.126;5.434;2023-04-03T11:36:05;103378.06;;;14.36;37.73
71791;BME280;59638;52.126;5.434;2023-04-03T11:38:54;103379.78;;;15.68;36.46
71791;BME280;59638;52.126;5.434;2023-04-03T11:41:27;103379.75;;;15.42;33.96
71791;BME280;59638;52.126;5.434;2023-04-03T11:44:00;103362.75;;;14.94;33.91
71791;BME280;59638;52.126;5.434;2023-04-03T11:46:51;103369.88;;;14.12;36.35
71791;BME280;59638;52.126;5.434;2023-04-03T12:16:51;103327.66;;;14.22;36.72
71791;BME280;59638;52.126;5.434;2023-04-03T12:24:48;103341.69;;;13.12;37.46
71791;BME280;59638;52.126;5.434;2023-04-03T12:27:21;103327.78;;;13.08;36.90
71791;BME280;59638;52.126;5.434;2023-04-03T12:30:21;103323.41;;;13.07;39.70
71791;BME280;59638;52.126;5.434;2023-04-03T12:33:03;103309.50;;;12.59;37.06
71791;BME280;59638;52.126;5.434;2023-04-03T12:38:41;103315.44;;;11.87;39.16
71791;BME280;59638;52.126;5.434;2023-04-03T12:41:42;103323.91;;;11.11;38.76
71791;BME280;59638;52.126;5.434;2023-04-03T12:46:47;103308.13;;;10.23;41.41
71791;BME280;59638;52.126;5.434;2023-04-03T12:51:49;103310.28;;;9.96;42.23
71791;BME280;59638;52.126;5.434;2023-04-03T12:54:37;103298.81;;;9.97;41.05
71791;BME280;59638;52.126;5.434;2023-04-03T12:57:17;103288.97;;;9.82;41.04
71791;BME280;59638;52.126;5.434;2023-04-03T12:59:44;103283.41;;;9.88;39.51
71791;BME280;59638;52.126;5.434;2023-04-03T13:02:20;103277.47;;;9.66;43.10
71791;BME280;59638;52.126;5.434;2023-04-03T13:04:48;103284.44;;;9.67;40.92
71791;BME280;59638;52.126;5.434;2023-04-03T13:07:21;103280.41;;;9.77;42.33
71791;BME280;59638;52.126;5.434;2023-04-03T13:09:56;103292.66;;;9.97;41.12
71791;BME280;59638;52.126;5.434;2023-04-03T13:12:22;103285.56;;;9.80;41.71
71791;BME280;59638;52.126;5.434;2023-04-03T13:14:57;103279.34;;;9.81;41.65
71791;BME280;59638;52.126;5.434;2023-04-03T13:17:25;103276.72;;;9.62;40.74
71791;BME280;59638;52.126;5.434;2023-04-03T13:19:55;103276.72;;;9.62;43.70
71791;BME280;59638;52.126;5.434;2023-04-03T13:22:35;103268.97;;;9.78;43.42
71791;BME280;59638;52.126;5.434;2023-04-03T13:25:07;103256.19;;;9.69;42.14
71791;BME280;59638;52.126;5.434;2023-04-03T13:27:36;103257.19;;;9.85;43.55
71791;BME280;59638;52.126;5.434;2023-04-03T13:30:06;103263.06;;;9.90;43.12
71791;BME280;59638;52.126;5.434;2023-04-03T13:32:32;103261.06;;;9.78;42.95
71791;BME280;59638;52.126;5.434;2023-04-03T13:34:59;103263.19;;;9.70;41.78
71791;BME280;59638;52.126;5.434;2023-04-03T13:37:54;103253.84;;;9.63;44.42
71791;BME280;59638;52.126;5.434;2023-04-03T13:40:21;103265.19;;;9.65;42.32
71791;BME280;59638;52.126;5.434;2023-04-03T13:43:02;103265.03;;;9.68;43.01
71791;BME280;59638;52.126;5.434;2023-04-03T13:45:31;103271.25;;;9.67;41.91
71791;BME280;59638;52.126;5.434;2023-04-03T13:50:57;103271.03;;;9.52;44.38
71791;BME280;59638;52.126;5.434;2023-04-03T13:53:26;103268.53;;;9.49;43.17
71791;BME280;59638;52.126;5.434;2023-04-03T13:55:57;103260.75;;;9.84;43.31
71791;BME280;59638;52.126;5.434;2023-04-03T13:58:27;103256.09;;;9.89;45.84
71791;BME280;59638;52.126;5.434;2023-04-03T14:03:44;103269.06;;;9.58;43.29
71791;BME280;59638;52.126;5.434;2023-04-03T14:06:14;103249.66;;;9.59;44.37
71791;BME280;59638;52.126;5.434;2023-04-03T14:08:42;103256.06;;;9.53;41.60
71791;BME280;59638;52.126;5.434;2023-04-03T14:11:18;103260.50;;;9.52;42.34
71791;BME280;59638;52.126;5.434;2023-04-03T14:13:45;103251.66;;;9.53;41.52
71791;BME280;59638;52.126;5.434;2023-04-03T14:16:18;103251.50;;;9.57;44.66
71791;BME280;59638;52.126;5.434;2023-04-03T14:18:46;103237.81;;;9.48;43.18
71791;BME280;59638;52.126;5.434;2023-04-03T14:21:15;103231.41;;;9.54;43.34
71791;BME280;59638;52.126;5.434;2023-04-03T14:23:43;103228.56;;;9.59;45.44
71791;BME280;59638;52.126;5.434;2023-04-03T14:26:15;103221.44;;;9.61;44.65
71791;BME280;59638;52.126;5.434;2023-04-03T14:28:45;103229.28;;;9.43;43.15
71791;BME280;59638;52.126;5.434;2023-04-03T14:31:13;103218.59;;;9.46;44.61
71791;BME280;59638;52.126;5.434;2023-04-03T14:33:40;103225.13;;;9.57;43.98
71791;BME280;59638;52.126;5.434;2023-04-03T14:36:15;103219.56;;;9.63;45.82
71791;BME280;59638;52.126;5.434;2023-04-03T14:38:44;103202.88;;;9.62;44.20
71791;BME280;59638;52.126;5.434;2023-04-03T14:41:13;103204.03;;;9.57;43.20
71791;BME280;59638;52.126;5.434;2023-04-03T14:43:43;103215.59;;;9.54;46.32
71791;BME280;59638;52.126;5.434;2023-04-03T14:46:14;103206.72;;;9.74;44.25
71791;BME280;59638;52.126;5.434;2023-04-03T14:48:41;103212.94;;;9.73;45.08
71791;BME280;59638;52.126;5.434;2023-04-03T14:51:11;103207.13;;;9.47;45.61
71791;BME280;59638;52.126;5.434;2023-04-03T14:53:38;103207.31;;;9.43;43.89